Terminal Aerodrome Forecast
Issued by NWS Wilmington, NC

Home | Current Version | Previous Version | Text Only | Print | Product List | Glossary On
Versions: 1 2 3 4 5 6 7 8 9 10 11 12
000
FTUS42 KILM 182324
TAFILM
TAF
KILM 182324Z 1900/1924 20010KT P6SM SCT250
     FM190600 21012G22KT P6SM SCT250
     FM191000 23017G26KT P6SM VCSH BKN040
     FM191300 30015G25KT P6SM SCT030 BKN100
     FM191500 31012G20KT P6SM SKC
     FM191900 30010KT P6SM SKC=

USA.gov is the U.S. government's official web portal to all federal, state and local government web resources and services.